createdAt,value
2022-12-03T00:01:34.814Z,-3.21
2022-12-03T00:06:37.658Z,-3.23
2022-12-03T00:11:40.428Z,-3.24
2022-12-03T00:16:43.237Z,-3.19
2022-12-03T00:21:46.091Z,-3.13
2022-12-03T00:26:48.857Z,-3.09
2022-12-03T00:31:51.645Z,-3.09
2022-12-03T00:36:54.429Z,-3.07
2022-12-03T00:41:57.272Z,-3.01
2022-12-03T00:47:00.188Z,-2.95
2022-12-03T00:52:03.029Z,-2.96
2022-12-03T00:57:05.927Z,-2.99
2022-12-03T01:02:09.204Z,-3.04
2022-12-03T01:07:12.126Z,-3.09
2022-12-03T01:12:15.006Z,-3.06
2022-12-03T01:17:17.856Z,-2.98
2022-12-03T01:22:20.688Z,-2.94
2022-12-03T01:27:23.655Z,-2.97
2022-12-03T01:32:26.554Z,-2.96
2022-12-03T01:37:29.410Z,-3.00
2022-12-03T01:42:35.568Z,-3.06
2022-12-03T01:47:38.548Z,-3.03
2022-12-03T01:52:42.198Z,-3.01
2022-12-03T01:57:51.545Z,-2.98
2022-12-03T02:02:59.772Z,-2.98
2022-12-03T02:08:02.704Z,-2.99
2022-12-03T02:13:10.913Z,-3.05
2022-12-03T02:18:13.755Z,-3.08
2022-12-03T02:23:23.980Z,-3.03
2022-12-03T02:28:27.090Z,-2.96
2022-12-03T02:33:29.902Z,-2.92
2022-12-03T02:38:34.291Z,-2.94
2022-12-03T02:43:37.542Z,-2.96
2022-12-03T02:48:41.909Z,-2.93
2022-12-03T02:53:48.772Z,-2.91
2022-12-03T02:58:54.653Z,-2.90
2022-12-03T03:03:58.477Z,-2.87
2022-12-03T03:09:01.262Z,-2.82
2022-12-03T03:14:04.257Z,-2.81
2022-12-03T03:19:07.592Z,-2.79
2022-12-03T03:24:10.597Z,-2.75
2022-12-03T03:29:13.865Z,-2.78
2022-12-03T03:34:17.700Z,-2.80
2022-12-03T03:39:20.486Z,-2.78
2022-12-03T03:44:23.484Z,-2.76
2022-12-03T03:49:26.881Z,-2.78
2022-12-03T03:54:29.764Z,-2.77
2022-12-03T03:59:32.808Z,-2.76
2022-12-03T04:04:36.885Z,-2.75
2022-12-03T04:09:39.796Z,-2.75
2022-12-03T04:14:42.571Z,-2.78
2022-12-03T04:19:45.369Z,-2.79
2022-12-03T04:24:48.433Z,-2.78
2022-12-03T04:29:51.280Z,-2.81
2022-12-03T04:35:12.628Z,-2.77
2022-12-03T04:40:33.985Z,-2.74
2022-12-03T04:45:36.849Z,-2.72
2022-12-03T04:50:39.753Z,-2.71
2022-12-03T04:55:42.579Z,-2.70
2022-12-03T05:00:45.344Z,-2.70
2022-12-03T05:05:48.165Z,-2.72
2022-12-03T05:10:50.919Z,-2.71
2022-12-03T05:15:53.708Z,-2.64
2022-12-03T05:20:56.484Z,-2.58
2022-12-03T05:26:01.662Z,-2.55
2022-12-03T05:31:05.210Z,-2.48
2022-12-03T05:36:08.356Z,-2.38
2022-12-03T05:41:29.625Z,-2.34
2022-12-03T05:46:32.991Z,-2.40
2022-12-03T05:51:35.887Z,-2.42
2022-12-03T05:56:38.625Z,-2.41
2022-12-03T06:01:41.428Z,-2.39
2022-12-03T06:06:44.233Z,-2.37
2022-12-03T06:11:47.083Z,-2.35
2022-12-03T06:16:49.858Z,-2.35
2022-12-03T06:21:56.845Z,-2.35
2022-12-03T06:26:59.568Z,-2.39
2022-12-03T06:32:02.795Z,-2.39
2022-12-03T06:37:05.913Z,-2.38
2022-12-03T06:42:08.760Z,-2.40
2022-12-03T06:47:11.979Z,-2.40
2022-12-03T06:52:14.854Z,-2.40
2022-12-03T06:57:17.808Z,-2.41
2022-12-03T07:02:20.627Z,-2.40
2022-12-03T07:07:23.525Z,-2.40
2022-12-03T07:12:26.320Z,-2.32
2022-12-03T07:17:29.119Z,-2.24
2022-12-03T07:22:31.886Z,-2.18
2022-12-03T07:27:34.982Z,-2.16
2022-12-03T07:32:37.855Z,-2.18
2022-12-03T07:37:40.666Z,-2.19
2022-12-03T07:42:43.508Z,-2.21
2022-12-03T07:47:46.316Z,-2.17
2022-12-03T07:52:49.284Z,-2.15
2022-12-03T07:57:52.427Z,-2.16
2022-12-03T08:02:55.480Z,-2.12
2022-12-03T08:07:58.525Z,-2.08
2022-12-03T08:13:06.746Z,-2.06
2022-12-03T08:18:23.482Z,-2.01
2022-12-03T08:28:29.531Z,-1.92
2022-12-03T08:33:51.767Z,-1.98
2022-12-03T08:49:31.967Z,-1.90
2022-12-03T08:54:34.830Z,-1.90
2022-12-03T08:59:41.437Z,-1.88
2022-12-03T09:04:48.775Z,-1.86
2022-12-03T09:09:51.613Z,-1.82
2022-12-03T09:14:54.624Z,-1.83
2022-12-03T09:19:58.039Z,-1.89
2022-12-03T09:25:00.913Z,-1.94
2022-12-03T09:30:05.581Z,-2.02
2022-12-03T09:35:09.215Z,-2.06
2022-12-03T09:40:13.397Z,-2.04
2022-12-03T09:45:16.813Z,-1.99
2022-12-03T09:50:23.879Z,-1.99
2022-12-03T09:55:28.241Z,-2.02
2022-12-03T10:00:31.093Z,-1.99
2022-12-03T10:05:34.939Z,-1.95
2022-12-03T10:10:40.779Z,-1.93
2022-12-03T10:15:44.883Z,-1.93
2022-12-03T10:20:48.599Z,-1.89
2022-12-03T10:26:05.311Z,-1.83
2022-12-03T10:31:10.662Z,-1.79
2022-12-03T10:36:23.466Z,-1.80
2022-12-03T10:41:28.400Z,-1.80
2022-12-03T10:46:31.292Z,-1.73
2022-12-03T10:51:34.369Z,-1.69
2022-12-03T10:56:37.182Z,-1.73
2022-12-03T11:01:40.162Z,-1.76
2022-12-03T11:06:43.179Z,-1.75
2022-12-03T11:11:46.506Z,-1.74
2022-12-03T11:16:52.735Z,-1.78
2022-12-03T11:22:09.884Z,-1.80
2022-12-03T11:27:12.700Z,-1.79
2022-12-03T11:32:43.865Z,-1.76
2022-12-03T11:37:46.682Z,-1.78
2022-12-03T11:42:49.980Z,-1.81
2022-12-03T11:47:58.810Z,-1.84
2022-12-03T11:53:14.526Z,-1.89
2022-12-03T11:58:24.870Z,-1.97
2022-12-03T12:03:49.644Z,-2.03
2022-12-03T12:08:52.643Z,-1.98
2022-12-03T12:13:57.044Z,-1.93
2022-12-03T12:19:29.964Z,-1.84
2022-12-03T12:24:46.449Z,-1.80
2022-12-03T12:29:58.660Z,-1.78
2022-12-03T12:35:21.219Z,-1.79
2022-12-03T12:40:27.412Z,-1.88
2022-12-03T12:45:36.553Z,-1.93
2022-12-03T12:50:44.183Z,-1.90
2022-12-03T12:55:48.485Z,-1.85
2022-12-03T13:00:54.041Z,-1.79
2022-12-03T13:05:57.897Z,-1.64
2022-12-03T13:11:02.795Z,-1.36
2022-12-03T13:16:07.206Z,-1.15
2022-12-03T13:21:21.692Z,-1.05
2022-12-03T13:26:43.091Z,-1.09
2022-12-03T13:32:13.892Z,-1.20
2022-12-03T13:37:22.351Z,-1.35
2022-12-03T13:42:39.473Z,-1.47
2022-12-03T13:47:46.208Z,-1.62
2022-12-03T13:52:49.230Z,-1.73
2022-12-03T13:57:52.566Z,-1.79
2022-12-03T14:02:55.322Z,-1.88
2022-12-03T14:08:01.752Z,-1.94
2022-12-03T14:13:05.051Z,-2.00
2022-12-03T14:18:08.206Z,-2.01
2022-12-03T14:23:11.345Z,-2.01
2022-12-03T14:28:14.256Z,-2.04
2022-12-03T14:33:17.023Z,-2.07
2022-12-03T14:38:19.997Z,-2.05
2022-12-03T14:43:24.323Z,-2.06
2022-12-03T14:48:28.285Z,-2.11
2022-12-03T14:53:33.512Z,-2.13
2022-12-03T14:58:36.512Z,-2.12
2022-12-03T15:03:39.449Z,-2.11
2022-12-03T15:08:42.296Z,-2.15
2022-12-03T15:13:45.076Z,-2.17
2022-12-03T15:18:47.885Z,-2.20
2022-12-03T15:23:50.738Z,-2.21
2022-12-03T15:28:53.820Z,-2.21
2022-12-03T15:33:56.656Z,-2.20
2022-12-03T15:38:59.570Z,-2.22
2022-12-03T15:44:02.811Z,-2.26
2022-12-03T15:49:05.566Z,-2.24
2022-12-03T15:54:08.413Z,-2.23
2022-12-03T15:59:11.223Z,-2.22
2022-12-03T16:04:14.051Z,-2.21
2022-12-03T16:09:18.306Z,-2.19
2022-12-03T16:14:23.072Z,-2.18
2022-12-03T16:19:28.016Z,-2.16
2022-12-03T16:24:30.783Z,-2.13
2022-12-03T16:29:33.821Z,-2.07
2022-12-03T16:34:36.673Z,-2.02
2022-12-03T16:39:39.477Z,-1.98
2022-12-03T16:44:54.465Z,-1.94
2022-12-03T16:49:57.273Z,-1.92
2022-12-03T16:55:00.406Z,-1.94
2022-12-03T17:00:04.955Z,-1.91
2022-12-03T17:05:08.110Z,-1.87
2022-12-03T17:10:11.444Z,-1.84
2022-12-03T17:15:14.622Z,-1.85
2022-12-03T17:20:18.103Z,-1.82
2022-12-03T17:25:21.032Z,-1.79
2022-12-03T17:30:24.974Z,-1.74
2022-12-03T17:35:28.702Z,-1.71
2022-12-03T17:40:34.299Z,-1.70
2022-12-03T17:45:37.188Z,-1.65
2022-12-03T17:50:40.545Z,-1.64
2022-12-03T17:55:45.209Z,-1.63
2022-12-03T18:00:48.664Z,-1.59
2022-12-03T18:05:51.485Z,-1.57
2022-12-03T18:10:55.730Z,-1.60
2022-12-03T18:15:58.627Z,-1.63
2022-12-03T18:21:04.002Z,-1.63
2022-12-03T18:26:07.395Z,-1.58
2022-12-03T18:31:21.778Z,-1.53
2022-12-03T18:36:30.235Z,-1.53
2022-12-03T18:41:33.470Z,-1.53
2022-12-03T18:46:53.111Z,-1.49
2022-12-03T18:51:59.482Z,-1.43
2022-12-03T18:57:02.859Z,-1.43
2022-12-03T19:02:07.121Z,-1.42
2022-12-03T19:07:13.026Z,-1.39
2022-12-03T19:12:16.845Z,-1.37
2022-12-03T19:17:19.697Z,-1.36
2022-12-03T19:22:23.262Z,-1.34
2022-12-03T19:27:31.048Z,-1.31
2022-12-03T19:32:35.049Z,-1.28
2022-12-03T19:37:40.560Z,-1.22
2022-12-03T19:42:43.838Z,-1.18
2022-12-03T19:47:50.300Z,-1.18
2022-12-03T19:52:53.250Z,-1.19
2022-12-03T19:57:56.327Z,-1.19
2022-12-03T20:03:02.488Z,-1.14
2022-12-03T20:08:07.370Z,-1.07
2022-12-03T20:13:10.229Z,-1.03
2022-12-03T20:18:13.098Z,-1.00
2022-12-03T20:23:15.886Z,-0.96
2022-12-03T20:28:18.856Z,-0.92
2022-12-03T20:33:21.781Z,-0.87
2022-12-03T20:38:26.513Z,-0.87
2022-12-03T20:43:29.380Z,-0.85
2022-12-03T20:48:32.142Z,-0.80
2022-12-03T20:53:36.470Z,-0.74
2022-12-03T20:58:39.407Z,-0.71
2022-12-03T21:03:42.232Z,-0.66
2022-12-03T21:08:45.933Z,-0.60
2022-12-03T21:13:48.899Z,-0.57
2022-12-03T21:18:52.375Z,-0.56
2022-12-03T21:23:55.188Z,-0.56
2022-12-03T21:28:58.165Z,-0.51
2022-12-03T21:34:01.684Z,-0.50
2022-12-03T21:39:05.522Z,-0.52
2022-12-03T21:44:12.904Z,-0.53
2022-12-03T21:49:17.008Z,-0.53
2022-12-03T21:54:20.563Z,-0.53
2022-12-03T21:59:23.428Z,-0.54
2022-12-03T22:04:26.388Z,-0.56
2022-12-03T22:09:31.207Z,-0.55
2022-12-03T22:14:34.066Z,-0.53
2022-12-03T22:19:36.829Z,-0.49
2022-12-03T22:24:40.057Z,-0.45
2022-12-03T22:29:42.795Z,-0.42
2022-12-03T22:34:45.621Z,-0.40
2022-12-03T22:39:48.488Z,-0.33
2022-12-03T22:44:51.256Z,-0.26
2022-12-03T22:49:54.255Z,-0.21
2022-12-03T22:54:57.265Z,-0.20
2022-12-03T23:00:00.049Z,-0.20
2022-12-03T23:05:02.891Z,-0.19
2022-12-03T23:10:06.890Z,-0.17
2022-12-03T23:15:09.959Z,-0.18
2022-12-03T23:20:13.215Z,-0.19
2022-12-03T23:25:16.644Z,-0.16
2022-12-03T23:30:19.521Z,-0.16
2022-12-03T23:35:22.564Z,-0.15
2022-12-03T23:40:25.419Z,-0.13
2022-12-03T23:45:28.215Z,-0.10
2022-12-03T23:50:32.251Z,-0.10
2022-12-03T23:55:39.276Z,-0.09
